createdAt,value
2022-11-17T00:01:15.541Z,25.40
2022-11-17T00:04:05.252Z,28.00
2022-11-17T00:06:55.046Z,24.20
2022-11-17T00:09:44.667Z,27.10
2022-11-17T00:12:52.304Z,26.00
2022-11-17T00:15:44.384Z,20.30
2022-11-17T00:18:52.220Z,22.70
2022-11-17T00:21:41.880Z,22.00
2022-11-17T00:24:31.506Z,18.90
2022-11-17T00:27:21.125Z,21.60
2022-11-17T00:30:32.519Z,20.50
2022-11-17T00:33:40.598Z,18.90
2022-11-17T00:36:30.541Z,20.80
2022-11-17T00:39:21.782Z,22.90
2022-11-17T00:42:10.906Z,21.50
2022-11-17T00:45:00.660Z,21.00
2022-11-17T00:47:50.357Z,20.80
2022-11-17T00:50:40.066Z,25.90
2022-11-17T00:53:29.654Z,20.80
2022-11-17T00:56:19.609Z,24.50
2022-11-17T00:59:09.775Z,22.00
2022-11-17T01:01:59.083Z,20.60
2022-11-17T01:04:48.791Z,21.00
2022-11-17T01:07:38.504Z,22.00
2022-11-17T01:10:28.150Z,20.10
2022-11-17T01:13:19.416Z,24.00
2022-11-17T01:16:11.945Z,22.20
2022-11-17T01:19:02.273Z,19.90
2022-11-17T01:24:40.569Z,21.90
2022-11-17T01:27:30.240Z,22.40
2022-11-17T01:30:20.281Z,24.60
2022-11-17T01:33:09.898Z,24.60
2022-11-17T01:36:03.488Z,20.70
2022-11-17T01:38:52.981Z,20.30
2022-11-17T01:41:42.646Z,20.70
2022-11-17T01:45:06.973Z,22.90
2022-11-17T01:48:02.070Z,23.30
2022-11-17T01:50:51.900Z,22.90
2022-11-17T01:53:44.592Z,21.40
2022-11-17T01:56:39.657Z,23.10
2022-11-17T01:59:33.669Z,23.00
2022-11-17T02:02:23.448Z,24.30
2022-11-17T02:05:30.217Z,23.60
2022-11-17T02:08:23.004Z,23.90
2022-11-17T02:11:15.586Z,20.30
2022-11-17T02:14:05.507Z,21.40
2022-11-17T02:16:54.985Z,20.30
2022-11-17T02:19:50.434Z,22.60
2022-11-17T02:23:03.816Z,25.50
2022-11-17T02:26:20.612Z,26.00
2022-11-17T02:29:18.724Z,25.40
2022-11-17T02:32:10.982Z,22.40
2022-11-17T02:35:10.450Z,26.50
2022-11-17T02:38:08.953Z,25.00
2022-11-17T02:41:06.564Z,22.70
2022-11-17T02:44:05.936Z,24.60
2022-11-17T02:47:01.803Z,24.20
2022-11-17T02:49:56.972Z,22.60
2022-11-17T02:52:48.011Z,25.20
2022-11-17T02:55:38.373Z,24.70
2022-11-17T02:58:27.873Z,23.50
2022-11-17T03:01:44.999Z,28.20
2022-11-17T03:04:45.888Z,28.70
2022-11-17T03:07:51.191Z,28.60
2022-11-17T03:10:52.425Z,29.60
2022-11-17T03:13:49.355Z,31.50
2022-11-17T03:16:47.524Z,28.70
2022-11-17T03:19:42.415Z,30.60
2022-11-17T03:22:41.111Z,28.40
2022-11-17T03:25:34.706Z,31.30
2022-11-17T03:28:29.606Z,32.20
2022-11-17T03:31:21.113Z,33.40
2022-11-17T03:34:15.375Z,33.60
2022-11-17T03:37:07.435Z,31.10
2022-11-17T03:40:02.029Z,32.60
2022-11-17T03:42:55.587Z,34.50
2022-11-17T03:45:49.292Z,35.50
2022-11-17T03:48:45.016Z,31.70
2022-11-17T03:51:34.312Z,33.70
2022-11-17T03:54:24.314Z,30.40
2022-11-17T03:57:19.979Z,33.30
2022-11-17T04:00:12.673Z,28.70
2022-11-17T04:03:01.879Z,28.10
2022-11-17T04:05:51.357Z,28.60
2022-11-17T04:08:40.867Z,28.90
2022-11-17T04:11:45.177Z,27.50
2022-11-17T04:14:53.213Z,28.50
2022-11-17T04:17:42.993Z,26.00
2022-11-17T04:20:35.732Z,30.10
2022-11-17T04:23:25.377Z,29.20
2022-11-17T04:26:33.035Z,28.30
2022-11-17T04:29:22.893Z,29.10
2022-11-17T04:32:12.523Z,29.90
2022-11-17T04:35:02.063Z,26.70
2022-11-17T04:37:51.652Z,28.80
2022-11-17T04:41:01.262Z,27.60
2022-11-17T04:43:51.403Z,27.70
2022-11-17T04:46:41.290Z,29.50
2022-11-17T04:49:34.757Z,27.60
2022-11-17T04:52:29.460Z,28.20
2022-11-17T04:55:19.339Z,27.90
2022-11-17T04:58:10.938Z,23.60
2022-11-17T05:01:11.845Z,22.30
2022-11-17T05:04:03.166Z,23.10
2022-11-17T05:06:52.499Z,23.80
2022-11-17T05:09:42.137Z,23.60
2022-11-17T05:12:49.612Z,25.80
2022-11-17T05:15:57.338Z,25.10
2022-11-17T05:18:46.899Z,24.10
2022-11-17T05:21:36.434Z,23.20
2022-11-17T05:24:26.384Z,25.70
2022-11-17T05:27:15.826Z,22.10
2022-11-17T05:30:07.746Z,24.90
2022-11-17T05:32:57.349Z,23.50
2022-11-17T05:35:46.983Z,24.30
2022-11-17T05:38:37.114Z,22.10
2022-11-17T05:41:27.159Z,26.60
2022-11-17T05:44:16.679Z,25.10
2022-11-17T05:47:06.360Z,24.20
2022-11-17T05:49:55.858Z,26.10
2022-11-17T05:52:45.327Z,28.20
2022-11-17T05:55:34.940Z,28.60
2022-11-17T05:58:32.929Z,26.90
2022-11-17T06:01:22.562Z,29.10
2022-11-17T06:04:14.343Z,29.70
2022-11-17T06:07:03.958Z,30.20
2022-11-17T06:09:53.434Z,29.40
2022-11-17T06:12:42.996Z,30.00
2022-11-17T06:15:34.249Z,27.30
2022-11-17T06:18:26.396Z,33.30
2022-11-17T06:21:17.207Z,20.00
2022-11-17T06:24:08.751Z,24.90
2022-11-17T06:26:57.957Z,39.00
2022-11-17T06:29:48.419Z,38.50
2022-11-17T06:32:39.837Z,31.20
2022-11-17T06:35:32.849Z,27.60
2022-11-17T06:38:21.815Z,33.80
2022-11-17T06:41:12.171Z,24.10
2022-11-17T06:44:02.195Z,38.90
2022-11-17T06:46:51.692Z,23.80
2022-11-17T06:49:41.127Z,26.80
2022-11-17T06:52:30.622Z,35.20
2022-11-17T06:55:22.916Z,20.00
2022-11-17T06:58:12.471Z,26.00
2022-11-17T07:01:07.778Z,30.30
2022-11-17T07:03:56.982Z,25.70
2022-11-17T07:06:46.503Z,19.60
2022-11-17T07:09:35.923Z,27.90
2022-11-17T07:12:25.482Z,25.50
2022-11-17T07:15:15.263Z,25.40
2022-11-17T07:18:05.350Z,19.60
2022-11-17T07:21:03.870Z,20.40
2022-11-17T07:23:53.779Z,25.30
2022-11-17T07:26:43.259Z,22.10
2022-11-17T07:29:32.757Z,24.20
2022-11-17T07:32:22.352Z,26.90
2022-11-17T07:35:11.827Z,21.80
2022-11-17T07:38:03.550Z,22.60
2022-11-17T07:40:57.394Z,21.20
2022-11-17T07:43:46.827Z,19.10
2022-11-17T07:46:36.818Z,21.10
2022-11-17T07:49:27.394Z,18.70
2022-11-17T07:52:16.552Z,22.60
2022-11-17T07:55:08.012Z,21.50
2022-11-17T07:57:59.063Z,18.40
2022-11-17T08:00:48.181Z,20.20
2022-11-17T08:03:38.305Z,22.30
2022-11-17T08:06:28.092Z,23.60
2022-11-17T08:09:18.022Z,24.40
2022-11-17T08:12:08.469Z,26.00
2022-11-17T08:14:57.968Z,25.50
2022-11-17T08:17:51.039Z,25.80
2022-11-17T08:20:40.538Z,23.60
2022-11-17T08:23:30.055Z,25.80
2022-11-17T08:26:20.456Z,22.10
2022-11-17T08:29:11.663Z,18.80
2022-11-17T08:32:01.230Z,18.90
2022-11-17T08:34:50.696Z,18.50
2022-11-17T08:37:42.753Z,22.50
2022-11-17T08:40:32.444Z,25.50
2022-11-17T08:43:22.668Z,18.20
2022-11-17T08:46:13.359Z,19.70
2022-11-17T08:49:03.036Z,17.00
2022-11-17T08:51:52.465Z,16.60
2022-11-17T08:54:42.028Z,15.70
2022-11-17T08:57:31.984Z,15.40
2022-11-17T09:00:22.673Z,16.30
2022-11-17T09:03:12.321Z,14.70
2022-11-17T09:06:03.366Z,14.60
2022-11-17T09:08:55.051Z,15.10
2022-11-17T09:11:44.148Z,16.30
2022-11-17T09:14:34.236Z,19.40
2022-11-17T09:17:27.065Z,15.20
2022-11-17T09:20:19.006Z,17.30
2022-11-17T09:23:08.617Z,15.20
2022-11-17T09:25:58.935Z,14.90
2022-11-17T09:28:48.690Z,12.30
2022-11-17T09:31:38.783Z,17.10
2022-11-17T09:34:28.933Z,14.50
2022-11-17T09:37:18.717Z,13.90
2022-11-17T09:40:13.654Z,16.40
2022-11-17T09:43:05.609Z,13.50
2022-11-17T09:46:07.344Z,15.00
2022-11-17T09:49:06.810Z,14.00
2022-11-17T09:52:02.068Z,15.60
2022-11-17T09:54:56.424Z,17.10
2022-11-17T09:57:50.086Z,20.10
2022-11-17T10:00:42.416Z,15.70
2022-11-17T10:03:34.756Z,15.90
2022-11-17T10:06:28.748Z,15.50
2022-11-17T10:09:26.951Z,14.10
2022-11-17T10:12:19.545Z,13.70
2022-11-17T10:15:24.270Z,23.90
2022-11-17T10:18:15.768Z,15.10
2022-11-17T10:21:06.525Z,16.50
2022-11-17T10:23:58.995Z,14.50
2022-11-17T10:26:49.355Z,13.60
2022-11-17T10:29:39.027Z,14.50
2022-11-17T10:32:29.887Z,12.00
2022-11-17T10:35:21.579Z,15.30
2022-11-17T10:38:19.697Z,18.30
2022-11-17T10:41:16.054Z,14.00
2022-11-17T10:44:17.118Z,13.40
2022-11-17T10:47:23.854Z,13.40
2022-11-17T10:50:21.988Z,12.10
2022-11-17T10:53:38.098Z,14.80
2022-11-17T10:56:33.389Z,13.90
2022-11-17T10:59:28.540Z,12.80
2022-11-17T11:02:29.457Z,12.10
2022-11-17T11:05:20.805Z,12.80
2022-11-17T11:08:17.412Z,12.90
2022-11-17T11:11:15.845Z,11.40
2022-11-17T11:14:15.953Z,11.60
2022-11-17T11:17:12.483Z,12.00
2022-11-17T11:20:01.713Z,12.10
2022-11-17T11:22:59.757Z,10.90
2022-11-17T11:26:38.355Z,11.70
2022-11-17T11:29:39.422Z,10.10
2022-11-17T11:32:38.873Z,9.20
2022-11-17T11:35:40.651Z,10.80
2022-11-17T11:38:52.664Z,10.80
2022-11-17T11:41:55.851Z,10.00
2022-11-17T11:45:11.660Z,10.20
2022-11-17T11:48:23.962Z,11.70
2022-11-17T11:51:18.492Z,9.60
2022-11-17T11:54:13.576Z,10.50
2022-11-17T11:57:04.191Z,7.10
2022-11-17T12:00:03.766Z,11.40
2022-11-17T12:03:04.187Z,9.40
2022-11-17T12:06:26.828Z,10.90
2022-11-17T12:09:36.554Z,9.90
2022-11-17T12:12:31.325Z,11.20
2022-11-17T12:15:35.608Z,12.30
2022-11-17T12:18:33.504Z,12.00
2022-11-17T12:21:25.012Z,12.20
2022-11-17T12:24:18.643Z,11.10
2022-11-17T12:27:41.956Z,12.70
2022-11-17T12:30:51.535Z,10.10
2022-11-17T12:34:16.994Z,13.20
2022-11-17T12:37:22.099Z,14.20
2022-11-17T12:40:44.738Z,13.20
2022-11-17T12:43:34.429Z,11.50
2022-11-17T12:46:27.016Z,12.30
2022-11-17T12:49:23.919Z,13.20
2022-11-17T12:52:21.088Z,19.10
2022-11-17T12:55:19.771Z,15.10
2022-11-17T12:58:19.400Z,13.90
2022-11-17T13:01:20.621Z,14.10
2022-11-17T13:04:19.655Z,17.70
2022-11-17T13:07:21.133Z,13.90
2022-11-17T13:10:25.308Z,16.40
2022-11-17T13:13:19.047Z,15.00
2022-11-17T13:16:18.102Z,17.30
2022-11-17T13:19:32.841Z,14.80
2022-11-17T13:22:23.640Z,17.50
2022-11-17T13:28:29.039Z,14.80
2022-11-17T13:31:20.360Z,15.60
2022-11-17T13:34:17.365Z,18.10
2022-11-17T13:37:14.722Z,17.70
2022-11-17T13:40:19.254Z,17.30
2022-11-17T13:43:13.171Z,18.80
2022-11-17T13:46:07.962Z,19.70
2022-11-17T13:48:57.724Z,19.60
2022-11-17T13:51:50.813Z,20.60
2022-11-17T13:55:11.740Z,18.80
2022-11-17T13:58:05.645Z,18.50
2022-11-17T14:00:59.981Z,26.10
2022-11-17T14:04:20.139Z,22.00
2022-11-17T14:07:33.862Z,22.60
2022-11-17T14:11:22.690Z,21.30
2022-11-17T14:14:22.980Z,21.00
2022-11-17T14:17:18.603Z,22.50
2022-11-17T14:20:30.955Z,24.00
2022-11-17T14:23:20.543Z,28.50
2022-11-17T14:26:21.497Z,26.90
2022-11-17T14:29:12.917Z,32.70
2022-11-17T14:32:02.136Z,24.50
2022-11-17T14:34:51.785Z,24.20
2022-11-17T14:37:41.895Z,22.40
2022-11-17T14:40:31.893Z,22.90
2022-11-17T14:43:22.468Z,22.90
2022-11-17T14:46:21.512Z,19.90
2022-11-17T14:49:10.934Z,17.60
2022-11-17T14:52:01.891Z,19.20
2022-11-17T14:54:51.831Z,18.70
2022-11-17T14:57:41.854Z,20.20
2022-11-17T15:00:31.430Z,18.00
2022-11-17T15:03:21.530Z,18.30
2022-11-17T15:06:19.974Z,18.00
2022-11-17T15:09:15.853Z,17.40
2022-11-17T15:12:06.275Z,15.80
2022-11-17T15:14:57.081Z,15.80
2022-11-17T15:17:52.432Z,17.10
2022-11-17T15:20:45.149Z,18.30
2022-11-17T15:23:39.116Z,14.20
2022-11-17T15:26:37.945Z,15.70
2022-11-17T15:29:27.786Z,14.00
2022-11-17T15:32:17.370Z,16.40
2022-11-17T15:35:08.556Z,19.10
2022-11-17T15:37:58.254Z,15.50
2022-11-17T15:40:54.641Z,14.60
2022-11-17T15:43:44.660Z,14.10
2022-11-17T15:49:23.846Z,12.90
2022-11-17T15:52:13.507Z,11.90
2022-11-17T15:55:03.544Z,14.30
2022-11-17T15:57:54.651Z,15.90
2022-11-17T16:00:54.345Z,14.60
2022-11-17T16:03:45.621Z,13.60
2022-11-17T16:06:37.727Z,13.00
2022-11-17T16:09:27.225Z,14.40
2022-11-17T16:12:16.932Z,14.80
2022-11-17T16:15:09.347Z,14.40
2022-11-17T16:17:58.712Z,16.00
2022-11-17T16:20:48.430Z,16.90
2022-11-17T16:23:42.561Z,17.20
2022-11-17T16:26:32.519Z,16.30
2022-11-17T16:29:24.297Z,17.00
2022-11-17T16:32:13.839Z,21.10
2022-11-17T16:35:03.711Z,29.20
2022-11-17T16:37:53.690Z,23.00
2022-11-17T16:40:43.860Z,22.40
2022-11-17T16:43:33.497Z,20.00
2022-11-17T16:46:25.024Z,21.10
2022-11-17T16:49:16.822Z,21.80
2022-11-17T16:52:06.551Z,23.80
2022-11-17T16:55:00.381Z,21.00
2022-11-17T16:57:52.994Z,23.80
2022-11-17T17:00:42.528Z,22.00
2022-11-17T17:03:32.144Z,22.00
2022-11-17T17:06:21.768Z,22.70
2022-11-17T17:09:13.288Z,22.10
2022-11-17T17:12:02.747Z,24.80
2022-11-17T17:14:53.439Z,23.80
2022-11-17T17:17:43.752Z,21.70
2022-11-17T17:20:53.265Z,33.20
2022-11-17T17:23:43.274Z,21.50
2022-11-17T17:26:33.794Z,22.30
2022-11-17T17:32:20.259Z,22.10
2022-11-17T17:35:11.740Z,26.60
2022-11-17T17:38:01.494Z,27.90
2022-11-17T17:40:51.214Z,25.70
2022-11-17T17:43:42.616Z,24.50
2022-11-17T17:46:36.192Z,24.60
2022-11-17T17:49:25.553Z,24.90
2022-11-17T17:52:17.971Z,25.00
2022-11-17T17:55:08.705Z,27.50
2022-11-17T17:57:58.127Z,35.40
2022-11-17T18:00:49.299Z,26.90
2022-11-17T18:03:39.606Z,26.50
2022-11-17T18:06:29.174Z,26.00
2022-11-17T18:09:19.962Z,27.10
2022-11-17T18:12:10.109Z,26.40
2022-11-17T18:14:59.511Z,25.40
2022-11-17T18:17:48.947Z,28.30
2022-11-17T18:20:48.119Z,27.10
2022-11-17T18:23:39.210Z,26.90
2022-11-17T18:26:35.469Z,27.10
2022-11-17T18:29:24.875Z,23.60
2022-11-17T18:32:14.527Z,24.90
2022-11-17T18:35:04.410Z,24.60
2022-11-17T18:37:54.944Z,25.80
2022-11-17T18:43:34.199Z,25.30
2022-11-17T18:46:24.741Z,23.30
2022-11-17T18:49:14.298Z,24.30
2022-11-17T18:52:04.163Z,22.40
2022-11-17T18:54:53.784Z,25.80
2022-11-17T18:57:45.042Z,28.30
2022-11-17T19:00:34.830Z,25.40
2022-11-17T19:03:24.560Z,27.30
2022-11-17T19:06:15.942Z,24.10
2022-11-17T19:09:06.285Z,23.20
2022-11-17T19:14:44.413Z,25.00
2022-11-17T19:17:35.205Z,23.60
2022-11-17T19:20:26.627Z,23.40
2022-11-17T19:23:16.480Z,20.50
2022-11-17T19:26:08.358Z,22.00
2022-11-17T19:28:59.731Z,19.90
2022-11-17T19:31:50.608Z,16.70
2022-11-17T19:34:41.184Z,20.30
2022-11-17T19:37:31.504Z,21.60
2022-11-17T19:43:12.589Z,24.20
2022-11-17T19:46:04.908Z,26.20
2022-11-17T19:48:54.630Z,21.50
2022-11-17T19:51:45.299Z,19.90
2022-11-17T19:57:24.473Z,21.90
2022-11-17T20:00:15.591Z,22.40
2022-11-17T20:03:05.327Z,22.30
2022-11-17T20:06:00.527Z,19.20
2022-11-17T20:08:50.015Z,22.50
2022-11-17T20:11:40.265Z,22.10
2022-11-17T20:14:31.625Z,24.80
2022-11-17T20:17:21.122Z,29.00
2022-11-17T20:20:12.397Z,22.40
2022-11-17T20:23:01.886Z,25.20
2022-11-17T20:25:54.451Z,26.50
2022-11-17T20:28:44.220Z,34.50
2022-11-17T20:31:36.109Z,30.70
2022-11-17T20:34:25.082Z,27.00
2022-11-17T20:37:14.686Z,27.60
2022-11-17T20:40:05.703Z,27.50
2022-11-17T20:42:55.470Z,30.70
2022-11-17T20:45:44.999Z,26.10
2022-11-17T20:48:35.579Z,24.70
2022-11-17T20:54:14.499Z,25.40
2022-11-17T20:57:04.226Z,26.10
2022-11-17T20:59:53.710Z,29.70
2022-11-17T21:02:43.242Z,21.90
2022-11-17T21:05:32.815Z,24.80
2022-11-17T21:08:22.843Z,27.00
2022-11-17T21:11:34.538Z,25.00
2022-11-17T21:14:25.902Z,27.50
2022-11-17T21:17:29.473Z,22.00
2022-11-17T21:20:19.011Z,30.20
2022-11-17T21:23:08.541Z,29.20
2022-11-17T21:25:58.193Z,27.80
2022-11-17T21:28:48.464Z,29.20
2022-11-17T21:31:40.363Z,19.50
2022-11-17T21:34:31.778Z,23.10
2022-11-17T21:37:21.521Z,22.80
2022-11-17T21:40:12.211Z,22.40
2022-11-17T21:43:01.678Z,23.20
2022-11-17T21:45:51.373Z,26.40
2022-11-17T21:48:41.693Z,26.90
2022-11-17T21:51:32.805Z,22.40
2022-11-17T21:54:21.973Z,20.50
2022-11-17T21:57:11.499Z,23.10
2022-11-17T22:00:00.974Z,24.00
2022-11-17T22:02:50.442Z,21.10
2022-11-17T22:05:41.587Z,20.70
2022-11-17T22:08:33.943Z,18.80
2022-11-17T22:11:37.963Z,21.50
2022-11-17T22:14:27.953Z,20.10
2022-11-17T22:17:17.552Z,23.00
2022-11-17T22:20:09.273Z,24.30
2022-11-17T22:22:59.022Z,23.60
2022-11-17T22:25:55.103Z,27.70
2022-11-17T22:28:44.290Z,24.40
2022-11-17T22:31:33.895Z,24.80
2022-11-17T22:34:23.453Z,25.70
2022-11-17T22:37:13.175Z,25.20
2022-11-17T22:40:02.986Z,24.70
2022-11-17T22:42:53.830Z,23.60
2022-11-17T22:45:43.408Z,24.60
2022-11-17T22:48:34.931Z,23.80
2022-11-17T22:51:42.456Z,25.90
2022-11-17T22:54:33.849Z,25.50
2022-11-17T22:57:23.860Z,24.50
2022-11-17T23:00:15.890Z,25.20
2022-11-17T23:03:05.618Z,23.10
2022-11-17T23:05:56.071Z,20.90
2022-11-17T23:08:45.338Z,20.50
2022-11-17T23:11:38.699Z,21.20
2022-11-17T23:14:28.665Z,17.00
2022-11-17T23:17:19.153Z,17.70
2022-11-17T23:22:58.530Z,19.00
2022-11-17T23:25:48.100Z,16.50
2022-11-17T23:28:38.034Z,21.80
2022-11-17T23:31:27.332Z,14.80
2022-11-17T23:34:16.866Z,17.40
2022-11-17T23:37:06.437Z,12.50
2022-11-17T23:39:55.954Z,12.50
2022-11-17T23:42:45.582Z,14.00
2022-11-17T23:45:35.098Z,15.20
2022-11-17T23:48:24.740Z,16.00
2022-11-17T23:51:16.479Z,13.80
2022-11-17T23:54:06.879Z,14.50
2022-11-17T23:56:56.349Z,11.40
2022-11-17T23:59:45.969Z,13.50
